createdAt,value
2023-02-19T00:00:00.641Z,14.90
2023-02-19T00:02:29.223Z,19.10
2023-02-19T00:04:57.921Z,15.00
2023-02-19T00:07:26.369Z,19.10
2023-02-19T00:09:56.694Z,16.30
2023-02-19T00:12:25.185Z,15.40
2023-02-19T00:14:55.318Z,18.00
2023-02-19T00:17:23.677Z,17.30
2023-02-19T00:19:51.849Z,14.20
2023-02-19T00:22:19.925Z,19.20
2023-02-19T00:24:49.334Z,19.70
2023-02-19T00:27:17.523Z,20.70
2023-02-19T00:29:46.197Z,14.90
2023-02-19T00:34:45.531Z,19.70
2023-02-19T00:37:13.690Z,19.70
2023-02-19T00:39:42.267Z,26.10
2023-02-19T00:42:10.342Z,18.80
2023-02-19T00:44:39.400Z,21.30
2023-02-19T00:47:07.717Z,16.40
2023-02-19T00:49:37.023Z,15.90
2023-02-19T00:52:05.630Z,25.40
2023-02-19T00:54:33.980Z,21.10
2023-02-19T00:57:02.135Z,20.50
2023-02-19T00:59:32.197Z,25.00
2023-02-19T01:02:00.550Z,22.00
2023-02-19T01:04:28.733Z,18.80
2023-02-19T01:06:58.028Z,18.30
2023-02-19T01:09:26.303Z,17.90
2023-02-19T01:11:54.886Z,20.80
2023-02-19T01:14:23.368Z,20.70
2023-02-19T01:16:51.976Z,19.10
2023-02-19T01:19:20.160Z,17.80
2023-02-19T01:21:48.560Z,22.60
2023-02-19T01:24:18.624Z,15.60
2023-02-19T01:26:47.398Z,14.40
2023-02-19T01:36:52.641Z,14.80
2023-02-19T01:39:20.880Z,18.00
2023-02-19T01:41:49.216Z,12.40
2023-02-19T01:44:18.764Z,13.30
2023-02-19T01:46:48.737Z,15.30
2023-02-19T01:49:28.556Z,16.60
2023-02-19T01:52:22.521Z,18.00
2023-02-19T01:54:50.795Z,17.10
2023-02-19T01:57:24.741Z,16.80
2023-02-19T01:59:55.419Z,23.10
2023-02-19T02:04:53.366Z,18.30
2023-02-19T02:07:40.850Z,20.90
2023-02-19T02:10:21.212Z,25.30
2023-02-19T02:12:57.606Z,19.80
2023-02-19T02:15:37.982Z,15.20
2023-02-19T02:18:11.052Z,15.60
2023-02-19T02:20:42.388Z,14.50
2023-02-19T02:23:35.952Z,14.70
2023-02-19T02:26:22.474Z,12.50
2023-02-19T02:28:59.946Z,16.80
2023-02-19T02:31:53.076Z,15.50
2023-02-19T02:34:24.966Z,13.30
2023-02-19T02:36:54.676Z,12.00
2023-02-19T02:39:25.492Z,14.70
2023-02-19T02:42:17.452Z,13.30
2023-02-19T02:45:27.905Z,17.80
2023-02-19T02:47:57.050Z,16.30
2023-02-19T02:50:27.308Z,14.70
2023-02-19T02:53:23.463Z,14.10
2023-02-19T02:55:52.316Z,14.70
2023-02-19T02:58:21.003Z,15.00
2023-02-19T03:01:15.404Z,11.30
2023-02-19T03:03:44.602Z,16.90
2023-02-19T03:06:12.663Z,11.30
2023-02-19T03:09:02.617Z,14.40
2023-02-19T03:11:52.474Z,14.80
2023-02-19T03:14:54.354Z,18.10
2023-02-19T03:18:14.468Z,14.90
2023-02-19T03:20:45.753Z,15.30
2023-02-19T03:23:15.287Z,17.70
2023-02-19T03:26:03.526Z,18.20
2023-02-19T03:28:59.898Z,18.00
2023-02-19T03:31:30.138Z,16.30
2023-02-19T03:34:02.969Z,21.10
2023-02-19T03:36:36.179Z,23.30
2023-02-19T03:39:08.860Z,20.20
2023-02-19T03:41:47.860Z,20.70
2023-02-19T03:44:55.365Z,19.60
2023-02-19T03:47:29.169Z,16.40
2023-02-19T03:50:22.956Z,17.00
2023-02-19T03:53:11.085Z,18.40
2023-02-19T03:55:54.622Z,16.90
2023-02-19T03:58:41.948Z,18.30
2023-02-19T04:01:17.023Z,20.30
2023-02-19T04:03:54.511Z,17.80
2023-02-19T04:06:26.647Z,20.60
2023-02-19T04:08:57.667Z,15.60
2023-02-19T04:11:27.426Z,19.40
2023-02-19T04:14:07.375Z,22.40
2023-02-19T04:16:37.388Z,18.80
2023-02-19T04:19:09.333Z,17.60
2023-02-19T04:21:38.738Z,15.80
2023-02-19T04:24:18.181Z,18.30
2023-02-19T04:26:46.257Z,23.80
2023-02-19T04:29:14.448Z,17.60
2023-02-19T04:31:42.825Z,21.40
2023-02-19T04:34:11.018Z,25.60
2023-02-19T04:36:39.486Z,30.50
2023-02-19T04:39:08.575Z,29.30
2023-02-19T04:41:37.038Z,32.70
2023-02-19T04:44:05.516Z,28.60
2023-02-19T04:46:34.037Z,24.30
2023-02-19T04:49:02.482Z,26.20
2023-02-19T04:51:30.857Z,26.10
2023-02-19T04:53:58.970Z,24.10
2023-02-19T04:56:27.306Z,23.20
2023-02-19T04:58:55.888Z,25.20
2023-02-19T05:01:25.216Z,23.80
2023-02-19T05:03:53.254Z,23.80
2023-02-19T05:06:21.360Z,31.20
2023-02-19T05:08:50.056Z,24.10
2023-02-19T05:11:18.612Z,20.80
2023-02-19T05:13:51.210Z,20.80
2023-02-19T05:16:19.471Z,22.40
2023-02-19T05:18:47.623Z,28.90
2023-02-19T05:21:16.217Z,20.40
2023-02-19T05:23:44.495Z,24.20
2023-02-19T05:26:17.916Z,22.10
2023-02-19T05:28:47.534Z,20.70
2023-02-19T05:31:16.083Z,18.90
2023-02-19T05:33:45.876Z,19.70
2023-02-19T05:36:14.683Z,21.00
2023-02-19T05:38:43.516Z,20.70
2023-02-19T05:41:15.915Z,14.60
2023-02-19T05:43:45.046Z,17.80
2023-02-19T05:46:14.664Z,14.90
2023-02-19T05:48:43.655Z,22.60
2023-02-19T05:51:14.268Z,16.10
2023-02-19T05:53:42.909Z,22.10
2023-02-19T05:56:20.924Z,15.50
2023-02-19T05:58:50.070Z,13.60
2023-02-19T06:01:19.321Z,19.00
2023-02-19T06:03:47.483Z,15.50
2023-02-19T06:06:17.681Z,13.70
2023-02-19T06:08:45.845Z,15.00
2023-02-19T06:11:14.323Z,15.90
2023-02-19T06:13:42.859Z,17.40
2023-02-19T06:16:11.224Z,21.50
2023-02-19T06:18:43.147Z,14.30
2023-02-19T06:21:12.293Z,19.10
2023-02-19T06:23:40.751Z,17.90
2023-02-19T06:26:13.713Z,17.10
2023-02-19T06:28:42.110Z,18.90
2023-02-19T06:31:11.067Z,13.50
2023-02-19T06:33:43.164Z,22.40
2023-02-19T06:36:16.576Z,19.80
2023-02-19T06:38:44.864Z,17.70
2023-02-19T06:41:20.723Z,21.20
2023-02-19T06:43:49.295Z,22.20
2023-02-19T06:46:17.670Z,19.60
2023-02-19T06:48:46.257Z,18.50
2023-02-19T06:51:19.657Z,14.10
2023-02-19T06:53:47.704Z,17.10
2023-02-19T06:56:24.045Z,19.80
2023-02-19T06:58:53.803Z,22.50
2023-02-19T07:01:23.518Z,20.60
2023-02-19T07:03:52.958Z,16.90
2023-02-19T07:06:22.217Z,20.20
2023-02-19T07:08:51.594Z,21.00
2023-02-19T07:11:20.044Z,21.30
2023-02-19T07:13:48.224Z,22.80
2023-02-19T07:16:18.180Z,35.80
2023-02-19T07:18:46.578Z,32.40
2023-02-19T07:21:16.484Z,33.50
2023-02-19T07:23:44.744Z,28.40
2023-02-19T07:26:15.285Z,29.40
2023-02-19T07:28:44.162Z,31.20
2023-02-19T07:31:12.928Z,20.50
2023-02-19T07:33:44.319Z,33.80
2023-02-19T07:36:12.786Z,24.10
2023-02-19T07:38:41.405Z,25.30
2023-02-19T07:41:10.150Z,21.50
2023-02-19T07:43:38.746Z,21.80
2023-02-19T07:46:09.710Z,16.20
2023-02-19T07:48:38.681Z,20.00
2023-02-19T07:51:08.785Z,19.20
2023-02-19T07:53:37.014Z,17.00
2023-02-19T07:56:07.398Z,19.50
2023-02-19T07:58:35.688Z,15.10
2023-02-19T08:01:18.517Z,27.50
2023-02-19T08:03:49.432Z,18.50
2023-02-19T08:06:18.747Z,27.40
2023-02-19T08:08:46.973Z,18.10
2023-02-19T08:11:38.216Z,23.40
2023-02-19T08:14:07.356Z,12.80
2023-02-19T08:16:42.940Z,21.30
2023-02-19T08:19:12.382Z,21.80
2023-02-19T08:21:40.646Z,18.10
2023-02-19T08:24:15.196Z,15.00
2023-02-19T08:26:43.650Z,17.30
2023-02-19T08:29:11.826Z,16.60
2023-02-19T08:31:40.161Z,12.50
2023-02-19T08:34:08.463Z,15.20
2023-02-19T08:36:39.436Z,16.10
2023-02-19T08:39:08.273Z,18.80
2023-02-19T08:41:36.722Z,22.30
2023-02-19T08:44:05.383Z,21.20
2023-02-19T08:46:35.970Z,23.70
2023-02-19T08:49:04.494Z,23.80
2023-02-19T08:51:32.773Z,15.40
2023-02-19T08:54:03.367Z,13.60
2023-02-19T08:56:31.927Z,20.20
2023-02-19T08:59:00.168Z,18.20
2023-02-19T09:01:28.928Z,23.80
2023-02-19T09:03:59.687Z,15.30
2023-02-19T09:06:28.004Z,17.00
2023-02-19T09:08:58.396Z,18.80
2023-02-19T09:11:26.971Z,15.40
2023-02-19T09:13:56.120Z,20.60
2023-02-19T09:16:24.861Z,16.30
2023-02-19T09:18:53.289Z,23.70
2023-02-19T09:21:22.478Z,22.80
2023-02-19T09:23:50.922Z,28.40
2023-02-19T09:26:19.357Z,41.40
2023-02-19T09:28:47.578Z,29.80
2023-02-19T09:31:16.661Z,41.90
2023-02-19T09:33:47.016Z,27.20
2023-02-19T09:36:16.278Z,25.90
2023-02-19T09:38:44.918Z,19.50
2023-02-19T09:41:33.124Z,14.90
2023-02-19T09:44:02.966Z,21.10
2023-02-19T09:46:33.498Z,13.60
2023-02-19T09:49:06.872Z,16.80
2023-02-19T09:51:36.749Z,16.80
2023-02-19T09:54:07.854Z,17.70
2023-02-19T09:56:37.228Z,15.80
2023-02-19T09:59:05.736Z,19.30
2023-02-19T10:01:34.830Z,17.60
2023-02-19T10:04:03.101Z,18.80
2023-02-19T10:06:34.263Z,17.20
2023-02-19T10:09:22.817Z,19.70
2023-02-19T10:11:54.951Z,15.80
2023-02-19T10:14:30.500Z,18.90
2023-02-19T10:17:04.721Z,14.20
2023-02-19T10:19:34.138Z,22.90
2023-02-19T10:22:03.105Z,19.90
2023-02-19T10:24:31.876Z,20.20
2023-02-19T10:27:00.497Z,12.00
2023-02-19T10:29:28.759Z,17.30
2023-02-19T10:32:18.911Z,19.50
2023-02-19T10:34:47.619Z,19.10
2023-02-19T10:37:17.430Z,23.20
2023-02-19T10:39:47.984Z,16.30
2023-02-19T10:42:18.005Z,16.40
2023-02-19T10:44:47.951Z,19.80
2023-02-19T10:47:18.439Z,21.40
2023-02-19T10:49:48.976Z,20.30
2023-02-19T10:52:20.623Z,14.10
2023-02-19T10:55:36.018Z,18.10
2023-02-19T10:58:26.824Z,16.00
2023-02-19T11:01:15.892Z,11.50
2023-02-19T11:03:45.286Z,16.80
2023-02-19T11:06:14.908Z,19.70
2023-02-19T11:09:16.043Z,16.50
2023-02-19T11:11:45.646Z,14.10
2023-02-19T11:14:24.405Z,12.40
2023-02-19T11:16:56.230Z,13.70
2023-02-19T11:19:27.740Z,14.00
2023-02-19T11:21:56.501Z,10.90
2023-02-19T11:24:28.440Z,11.10
2023-02-19T11:26:58.042Z,10.60
2023-02-19T11:29:28.899Z,8.70
2023-02-19T11:34:29.968Z,10.60
2023-02-19T11:37:18.091Z,10.70
2023-02-19T11:39:50.600Z,13.20
2023-02-19T11:42:58.810Z,15.40
2023-02-19T11:45:34.127Z,10.20
2023-02-19T11:48:17.571Z,12.30
2023-02-19T11:51:11.604Z,9.30
2023-02-19T11:53:56.588Z,10.60
2023-02-19T11:56:33.903Z,10.60
2023-02-19T11:59:02.186Z,9.70
2023-02-19T12:02:08.155Z,14.30
2023-02-19T12:05:07.795Z,14.70
2023-02-19T12:07:47.888Z,12.00
2023-02-19T12:10:29.658Z,11.40
2023-02-19T12:13:04.765Z,8.60
2023-02-19T12:15:51.743Z,6.90
2023-02-19T12:18:39.376Z,8.20
2023-02-19T12:21:35.608Z,8.10
2023-02-19T12:32:15.912Z,6.70
2023-02-19T12:35:15.673Z,9.00
2023-02-19T12:37:56.702Z,8.60
2023-02-19T12:40:40.751Z,8.80
2023-02-19T12:43:20.342Z,7.20
2023-02-19T12:46:17.278Z,5.80
2023-02-19T12:48:49.000Z,5.80
2023-02-19T12:51:49.148Z,8.30
2023-02-19T12:54:25.722Z,10.70
2023-02-19T12:56:55.746Z,7.20
2023-02-19T12:59:29.575Z,10.00
2023-02-19T13:02:21.077Z,11.30
2023-02-19T13:05:05.310Z,11.00
2023-02-19T13:07:44.924Z,10.50
2023-02-19T13:10:25.822Z,14.00
2023-02-19T13:12:55.223Z,13.30
2023-02-19T13:15:42.753Z,13.30
2023-02-19T13:18:20.426Z,11.40
2023-02-19T13:20:49.071Z,12.10
2023-02-19T13:23:56.169Z,18.40
2023-02-19T13:26:50.576Z,15.20
2023-02-19T13:29:37.116Z,17.90
2023-02-19T13:32:39.096Z,14.30
2023-02-19T13:35:23.869Z,14.80
2023-02-19T13:37:52.224Z,14.00
2023-02-19T13:40:35.496Z,9.50
2023-02-19T13:43:08.521Z,15.00
2023-02-19T13:45:44.028Z,14.70
2023-02-19T13:48:31.866Z,14.50
2023-02-19T13:51:24.569Z,12.60
2023-02-19T13:53:55.822Z,11.60
2023-02-19T13:56:30.209Z,11.60
2023-02-19T13:59:24.634Z,10.60
2023-02-19T14:01:55.879Z,14.40
2023-02-19T14:04:42.588Z,17.30
2023-02-19T14:07:10.702Z,18.10
2023-02-19T14:17:40.843Z,20.80
2023-02-19T14:20:09.396Z,17.30
2023-02-19T14:22:47.216Z,27.10
2023-02-19T14:25:28.490Z,20.60
2023-02-19T14:28:06.529Z,25.30
2023-02-19T14:30:35.935Z,23.60
2023-02-19T14:33:11.745Z,25.20
2023-02-19T14:35:44.815Z,22.20
2023-02-19T14:38:37.501Z,17.30
2023-02-19T14:41:12.722Z,13.20
2023-02-19T14:43:41.494Z,11.70
2023-02-19T14:46:24.089Z,16.10
2023-02-19T14:51:31.853Z,18.70
2023-02-19T14:54:00.254Z,12.10
2023-02-19T14:56:32.609Z,18.90
2023-02-19T14:59:22.489Z,16.70
2023-02-19T15:01:56.077Z,14.90
2023-02-19T15:04:31.453Z,19.90
2023-02-19T15:07:01.184Z,18.90
2023-02-19T15:09:36.227Z,12.70
2023-02-19T15:12:04.766Z,16.30
2023-02-19T15:14:33.373Z,16.50
2023-02-19T15:17:04.454Z,18.20
2023-02-19T15:19:35.448Z,18.20
2023-02-19T15:22:04.132Z,14.10
2023-02-19T15:24:33.133Z,13.50
2023-02-19T15:27:02.727Z,15.40
2023-02-19T15:29:30.929Z,32.60
2023-02-19T15:32:00.540Z,53.20
2023-02-19T15:34:30.336Z,32.50
2023-02-19T15:37:06.900Z,19.90
2023-02-19T15:39:45.438Z,17.60
2023-02-19T15:42:26.106Z,21.30
2023-02-19T15:45:00.500Z,16.30
2023-02-19T15:47:33.609Z,15.80
2023-02-19T15:50:18.769Z,21.40
2023-02-19T15:53:00.560Z,16.50
2023-02-19T15:55:28.836Z,17.70
2023-02-19T15:58:09.981Z,15.70
2023-02-19T16:00:45.298Z,17.50
2023-02-19T16:03:35.320Z,16.90
2023-02-19T16:06:11.606Z,21.70
2023-02-19T16:09:04.864Z,18.80
2023-02-19T16:11:38.217Z,20.80
2023-02-19T16:14:16.885Z,15.50
2023-02-19T16:16:46.910Z,17.90
2023-02-19T16:19:23.889Z,16.50
2023-02-19T16:21:52.416Z,15.30
2023-02-19T16:24:31.440Z,16.10
2023-02-19T16:27:07.707Z,19.10
2023-02-19T16:29:36.760Z,22.80
2023-02-19T16:32:15.782Z,21.50
2023-02-19T16:34:47.092Z,19.40
2023-02-19T16:40:24.865Z,15.50
2023-02-19T16:42:55.300Z,17.40
2023-02-19T16:45:34.066Z,19.40
2023-02-19T16:48:02.384Z,18.20
2023-02-19T16:50:32.005Z,18.40
2023-02-19T16:53:03.433Z,14.70
2023-02-19T16:55:34.916Z,20.20
2023-02-19T16:58:03.378Z,17.50
2023-02-19T17:00:31.985Z,25.60
2023-02-19T17:03:09.373Z,16.90
2023-02-19T17:05:38.448Z,20.00
2023-02-19T17:08:34.472Z,15.40
2023-02-19T17:11:10.484Z,20.40
2023-02-19T17:13:41.374Z,15.20
2023-02-19T17:16:17.882Z,18.00
2023-02-19T17:18:49.942Z,17.50
2023-02-19T17:21:20.439Z,12.90
2023-02-19T17:23:49.441Z,19.00
2023-02-19T17:26:19.838Z,12.20
2023-02-19T17:28:48.850Z,14.40
2023-02-19T17:31:17.174Z,19.50
2023-02-19T17:33:45.623Z,24.00
2023-02-19T17:36:18.831Z,16.70
2023-02-19T17:38:47.009Z,12.40
2023-02-19T17:41:15.272Z,14.00
2023-02-19T17:43:43.631Z,17.20
2023-02-19T17:46:18.836Z,19.90
2023-02-19T17:48:46.943Z,17.40
2023-02-19T17:51:15.233Z,19.50
2023-02-19T17:53:43.809Z,15.20
2023-02-19T17:56:16.389Z,13.70
2023-02-19T17:58:44.646Z,19.10
2023-02-19T18:01:13.309Z,16.10
2023-02-19T18:03:41.869Z,15.50
2023-02-19T18:06:10.312Z,15.20
2023-02-19T18:08:38.762Z,11.60
2023-02-19T18:11:10.575Z,13.30
2023-02-19T18:13:39.648Z,16.50
2023-02-19T18:16:08.443Z,19.10
2023-02-19T18:18:37.538Z,20.30
2023-02-19T18:21:08.592Z,16.50
2023-02-19T18:23:37.371Z,18.40
2023-02-19T18:26:10.501Z,17.10
2023-02-19T18:28:39.874Z,19.20
2023-02-19T18:31:11.249Z,25.30
2023-02-19T18:33:40.408Z,18.00
2023-02-19T18:36:12.176Z,15.30
2023-02-19T18:38:40.543Z,17.20
2023-02-19T18:41:13.274Z,17.60
2023-02-19T18:43:44.988Z,15.10
2023-02-19T18:46:13.434Z,13.40
2023-02-19T18:48:43.793Z,18.00
2023-02-19T18:51:12.675Z,14.80
2023-02-19T18:53:43.933Z,17.10
2023-02-19T18:56:12.004Z,21.10
2023-02-19T18:58:41.511Z,18.30
2023-02-19T19:01:10.295Z,22.70
2023-02-19T19:03:38.879Z,20.20
2023-02-19T19:06:07.435Z,16.60
2023-02-19T19:08:35.637Z,18.00
2023-02-19T19:11:05.152Z,26.70
2023-02-19T19:13:34.856Z,51.60
2023-02-19T19:16:05.859Z,20.20
2023-02-19T19:18:38.263Z,18.80
2023-02-19T19:21:06.781Z,18.70
2023-02-19T19:23:35.754Z,19.10
2023-02-19T19:26:07.307Z,25.10
2023-02-19T19:28:35.491Z,22.20
2023-02-19T19:31:03.825Z,21.40
2023-02-19T19:33:34.746Z,20.90
2023-02-19T19:36:03.401Z,17.90
2023-02-19T19:38:32.786Z,18.60
2023-02-19T19:41:01.369Z,18.00
2023-02-19T19:43:33.075Z,18.50
2023-02-19T19:46:03.275Z,16.30
2023-02-19T19:48:35.617Z,18.80
2023-02-19T19:51:03.897Z,19.30
2023-02-19T19:53:32.047Z,21.90
2023-02-19T19:56:01.380Z,16.70
2023-02-19T19:58:30.363Z,18.00
2023-02-19T20:01:02.025Z,22.70
2023-02-19T20:03:31.725Z,23.30
2023-02-19T20:06:01.235Z,22.40
2023-02-19T20:08:30.660Z,17.00
2023-02-19T20:10:59.018Z,19.40
2023-02-19T20:13:30.879Z,16.40
2023-02-19T20:16:06.454Z,18.70
2023-02-19T20:18:34.824Z,17.00
2023-02-19T20:21:04.105Z,16.60
2023-02-19T20:23:33.409Z,18.20
2023-02-19T20:26:01.895Z,17.80
2023-02-19T20:28:30.325Z,17.60
2023-02-19T20:30:59.510Z,18.60
2023-02-19T20:33:27.763Z,17.00
2023-02-19T20:35:57.162Z,20.10
2023-02-19T20:38:25.935Z,16.70
2023-02-19T20:40:55.036Z,17.70
2023-02-19T20:43:23.444Z,17.40
2023-02-19T20:45:52.588Z,17.90
2023-02-19T20:48:22.139Z,20.30
2023-02-19T20:50:50.805Z,18.10
2023-02-19T20:53:19.137Z,19.80
2023-02-19T20:55:47.320Z,16.80
2023-02-19T20:58:15.513Z,15.40
2023-02-19T21:00:44.455Z,14.60
2023-02-19T21:11:09.788Z,13.30
2023-02-19T21:13:37.553Z,15.60
2023-02-19T21:16:05.159Z,9.70
2023-02-19T21:18:32.172Z,13.10
2023-02-19T21:20:59.010Z,12.10
2023-02-19T21:23:25.954Z,13.60
2023-02-19T21:25:54.556Z,17.00
2023-02-19T21:28:21.900Z,16.70
2023-02-19T21:30:48.733Z,17.20
2023-02-19T21:33:16.155Z,17.10
2023-02-19T21:35:42.934Z,21.00
2023-02-19T21:38:09.678Z,19.50
2023-02-19T21:40:37.078Z,17.20
2023-02-19T21:43:04.463Z,15.90
2023-02-19T21:45:31.401Z,19.10
2023-02-19T21:55:42.930Z,16.20
2023-02-19T21:58:18.418Z,15.70
2023-02-19T22:00:46.603Z,19.10
2023-02-19T22:03:16.224Z,21.40
2023-02-19T22:05:44.885Z,14.50
2023-02-19T22:08:15.769Z,15.40
2023-02-19T22:10:46.147Z,13.90
2023-02-19T22:13:14.506Z,21.70
2023-02-19T22:15:46.136Z,17.00
2023-02-19T22:18:14.356Z,13.50
2023-02-19T22:20:42.681Z,21.40
2023-02-19T22:23:11.323Z,17.70
2023-02-19T22:25:42.056Z,15.90
2023-02-19T22:28:10.780Z,17.20
2023-02-19T22:30:39.128Z,17.20
2023-02-19T22:33:07.466Z,16.40
2023-02-19T22:35:35.577Z,16.00
2023-02-19T22:38:03.751Z,18.60
2023-02-19T22:40:31.926Z,22.10
2023-02-19T22:43:00.300Z,14.50
2023-02-19T22:45:28.549Z,19.50
2023-02-19T22:47:56.861Z,23.50
2023-02-19T22:50:26.676Z,25.60
2023-02-19T22:52:55.693Z,28.80
2023-02-19T22:55:24.352Z,26.50
2023-02-19T22:57:54.355Z,21.70
2023-02-19T23:00:23.162Z,23.10
2023-02-19T23:02:52.175Z,19.80
2023-02-19T23:05:22.894Z,17.60
2023-02-19T23:07:51.677Z,18.00
2023-02-19T23:12:51.633Z,13.30
2023-02-19T23:15:21.232Z,17.50
2023-02-19T23:17:49.339Z,13.20
2023-02-19T23:20:17.675Z,21.90
2023-02-19T23:22:45.745Z,26.90
2023-02-19T23:25:14.246Z,25.50
2023-02-19T23:27:43.326Z,24.90
2023-02-19T23:30:12.242Z,25.40
2023-02-19T23:32:41.315Z,29.40
2023-02-19T23:35:09.488Z,27.40
2023-02-19T23:37:37.591Z,21.20
2023-02-19T23:40:07.055Z,19.40
2023-02-19T23:42:35.746Z,19.40
2023-02-19T23:45:04.466Z,18.90
2023-02-19T23:47:34.857Z,17.10
2023-02-19T23:50:03.180Z,15.10
2023-02-19T23:52:31.820Z,15.40
2023-02-19T23:55:00.084Z,15.40
2023-02-19T23:57:28.685Z,15.10
2023-02-19T23:59:57.146Z,12.40
